Who's Online

We have 4 guests online

Aviation WX

[source: ADDS]
METAR
KIAD 210822Z 19004KT 2 1/2SM BR OVC003 08/08 A2991 RMK AO2 VIS SW 3 T00830078 =
TAF
KIAD 210525Z 2106/2212 00000KT 2SM -DZ BR BKN003 OVC005 FM210900 VRB03KT 1/2SM -DZ FG OVC002 FM211400 VRB03KT 5SM BR BKN004 OVC008 FM211700 17004KT P6SM BKN008 OVC015 FM212300 15004KT 5SM BR BKN004 OVC008 FM220600 VRB03KT 1SM BR OVC003 =
SR / SS: 02:03 / 12:03 UTC (Washington-Dulles 2017-01-21)

JoomlaWatch Agent

Home Products and Services

This section describes Multilink Systems products and services

 

 

Under construction Please Standby